createdAt,value
2023-03-24T00:01:00.382Z,2.50
2023-03-24T00:04:01.941Z,2.60
2023-03-24T00:07:04.180Z,2.70
2023-03-24T00:10:09.420Z,2.80
2023-03-24T00:13:10.822Z,2.70
2023-03-24T00:16:13.961Z,3.77
2023-03-24T00:19:16.094Z,4.77
2023-03-24T00:22:17.528Z,7.70
2023-03-24T00:25:23.184Z,7.40
2023-03-24T00:28:25.138Z,7.10
2023-03-24T00:31:26.674Z,6.07
2023-03-24T00:34:28.383Z,4.90
2023-03-24T00:37:29.964Z,4.47
2023-03-24T00:40:31.403Z,4.10
2023-03-24T00:43:33.053Z,4.00
2023-03-24T00:46:35.238Z,3.70
2023-03-24T00:49:43.029Z,3.50
2023-03-24T00:52:48.035Z,2.90
2023-03-24T00:55:50.625Z,2.97
2023-03-24T00:58:54.060Z,2.90
2023-03-24T01:01:56.580Z,3.27
2023-03-24T01:05:00.016Z,3.23
2023-03-24T01:08:04.809Z,2.93
2023-03-24T01:11:06.727Z,2.77
2023-03-24T01:14:09.498Z,3.43
2023-03-24T01:17:11.106Z,3.00
2023-03-24T01:20:13.359Z,3.37
2023-03-24T01:23:17.615Z,2.97
2023-03-24T01:26:19.057Z,2.70
2023-03-24T01:29:20.743Z,2.93
2023-03-24T01:32:22.157Z,3.00
2023-03-24T01:35:29.465Z,2.93
2023-03-24T01:38:31.365Z,3.10
2023-03-24T01:41:37.001Z,2.70
2023-03-24T01:44:38.950Z,3.00
2023-03-24T01:47:40.487Z,2.63
2023-03-24T01:50:45.043Z,3.10
2023-03-24T01:53:53.078Z,2.60
2023-03-24T01:57:01.513Z,2.93
2023-03-24T02:00:10.648Z,2.80
2023-03-24T02:03:33.997Z,3.30
2023-03-24T02:06:41.102Z,2.50
2023-03-24T02:09:43.050Z,2.43
2023-03-24T02:12:45.089Z,2.83
2023-03-24T02:16:00.815Z,2.33
2023-03-24T02:19:53.260Z,2.47
2023-03-24T02:23:31.482Z,2.70
2023-03-24T02:26:58.992Z,2.90
2023-03-24T02:30:22.377Z,2.83
2023-03-24T02:34:01.994Z,2.50
2023-03-24T02:37:27.558Z,2.70
2023-03-24T02:40:44.520Z,2.33
2023-03-24T02:43:58.489Z,2.70
2023-03-24T02:47:06.204Z,2.70
2023-03-24T02:50:32.305Z,2.40
2023-03-24T02:54:19.332Z,2.93
2023-03-24T02:57:40.341Z,3.10
2023-03-24T03:01:06.917Z,2.80
2023-03-24T03:04:46.095Z,2.80
2023-03-24T03:07:50.658Z,3.00
2023-03-24T03:10:55.733Z,2.30
2023-03-24T03:14:05.510Z,2.80
2023-03-24T03:17:16.944Z,2.80
2023-03-24T03:20:24.225Z,2.77
2023-03-24T03:23:35.829Z,2.80
2023-03-24T03:26:37.940Z,2.07
2023-03-24T03:29:43.208Z,2.40
2023-03-24T03:32:54.284Z,2.30
2023-03-24T03:36:07.037Z,2.50
2023-03-24T03:39:16.726Z,2.10
2023-03-24T03:42:19.421Z,2.27
2023-03-24T03:45:20.995Z,2.50
2023-03-24T03:48:26.294Z,2.77
2023-03-24T03:51:27.886Z,2.40
2023-03-24T03:54:32.371Z,2.40
2023-03-24T03:57:36.075Z,2.60
2023-03-24T04:01:22.844Z,2.50
2023-03-24T04:05:06.266Z,2.47
2023-03-24T04:08:45.842Z,2.43
2023-03-24T04:12:21.343Z,2.47
2023-03-24T04:15:57.775Z,2.60
2023-03-24T04:19:41.865Z,2.33
2023-03-24T04:23:05.552Z,2.53
2023-03-24T04:26:26.168Z,2.77
2023-03-24T04:29:53.671Z,2.77
2023-03-24T04:33:06.993Z,2.80
2023-03-24T04:36:19.456Z,3.47
2023-03-24T04:40:00.535Z,3.50
2023-03-24T04:43:05.500Z,3.10
2023-03-24T04:46:08.727Z,3.60
2023-03-24T04:49:28.783Z,3.30
2023-03-24T04:52:30.745Z,3.30
2023-03-24T04:55:50.891Z,3.50
2023-03-24T04:59:18.545Z,3.57
2023-03-24T05:02:21.863Z,3.70
2023-03-24T05:05:33.800Z,3.30
2023-03-24T05:08:35.303Z,3.20
2023-03-24T05:11:37.656Z,3.43
2023-03-24T05:14:42.691Z,3.47
2023-03-24T05:17:44.781Z,3.60
2023-03-24T05:20:46.550Z,4.20
2023-03-24T05:23:54.321Z,4.77
2023-03-24T05:26:56.261Z,5.20
2023-03-24T05:29:57.827Z,5.20
2023-03-24T05:33:01.840Z,4.10
2023-03-24T05:36:03.855Z,4.70
2023-03-24T05:39:06.173Z,4.43
2023-03-24T05:42:18.364Z,4.37
2023-03-24T05:45:19.943Z,4.63
2023-03-24T05:48:22.365Z,5.07
2023-03-24T05:51:46.943Z,5.07
2023-03-24T05:54:52.835Z,5.10
2023-03-24T05:58:00.265Z,5.07
2023-03-24T06:01:25.214Z,4.97
2023-03-24T06:04:33.851Z,5.30
2023-03-24T06:07:44.860Z,5.37
2023-03-24T06:10:46.366Z,5.60
2023-03-24T06:13:47.777Z,5.37
2023-03-24T06:16:50.152Z,6.10
2023-03-24T06:19:52.746Z,5.60
2023-03-24T06:23:11.268Z,5.30
2023-03-24T06:26:22.116Z,5.63
2023-03-24T06:29:29.425Z,5.57
2023-03-24T06:32:31.004Z,5.10
2023-03-24T06:35:32.473Z,5.37
2023-03-24T06:38:47.094Z,5.37
2023-03-24T06:41:52.707Z,5.40
2023-03-24T06:44:54.229Z,5.27
2023-03-24T06:47:56.742Z,4.87
2023-03-24T06:50:58.264Z,5.30
2023-03-24T06:53:59.944Z,5.13
2023-03-24T06:57:01.946Z,5.40
2023-03-24T07:00:23.390Z,5.63
2023-03-24T07:03:44.761Z,5.30
2023-03-24T07:09:59.664Z,6.27
2023-03-24T07:13:03.067Z,5.10
2023-03-24T07:16:06.915Z,5.27
2023-03-24T07:19:11.238Z,4.90
2023-03-24T07:22:15.381Z,4.50
2023-03-24T07:25:37.064Z,4.43
2023-03-24T07:28:49.100Z,4.80
2023-03-24T07:32:10.806Z,4.57
2023-03-24T07:35:13.128Z,4.87
2023-03-24T07:38:14.531Z,4.70
2023-03-24T07:41:16.357Z,4.50
2023-03-24T07:44:25.686Z,4.20
2023-03-24T07:47:29.204Z,3.80
2023-03-24T07:50:31.918Z,4.20
2023-03-24T07:53:34.305Z,3.90
2023-03-24T07:56:36.807Z,3.57
2023-03-24T07:59:39.791Z,3.30
2023-03-24T08:02:49.939Z,3.50
2023-03-24T08:06:17.033Z,2.90
2023-03-24T08:09:25.003Z,2.87
2023-03-24T08:12:26.404Z,2.97
2023-03-24T08:15:28.610Z,2.70
2023-03-24T08:18:31.987Z,3.07
2023-03-24T08:21:33.724Z,3.20
2023-03-24T08:24:36.253Z,3.00
2023-03-24T08:27:39.980Z,3.43
2023-03-24T08:30:43.523Z,3.07
2023-03-24T08:33:45.027Z,3.20
2023-03-24T08:36:46.484Z,2.67
2023-03-24T08:39:47.866Z,2.83
2023-03-24T08:42:59.147Z,3.20
2023-03-24T08:46:01.757Z,2.90
2023-03-24T08:49:03.908Z,3.00
2023-03-24T08:52:05.459Z,3.07
2023-03-24T08:55:09.069Z,2.80
2023-03-24T08:58:19.343Z,2.60
2023-03-24T09:01:22.604Z,2.60
2023-03-24T09:04:24.184Z,2.70
2023-03-24T09:07:26.068Z,2.77
2023-03-24T09:10:27.508Z,2.87
2023-03-24T09:13:29.042Z,2.60
2023-03-24T09:16:31.621Z,2.40
2023-03-24T09:19:34.037Z,2.60
2023-03-24T09:22:44.006Z,2.17
2023-03-24T09:25:49.223Z,2.53
2023-03-24T09:28:50.756Z,2.50
2023-03-24T09:31:53.709Z,2.50
2023-03-24T09:34:55.177Z,2.60
2023-03-24T09:37:56.627Z,2.20
2023-03-24T09:41:02.398Z,2.33
2023-03-24T09:44:07.371Z,2.10
2023-03-24T09:47:39.997Z,2.17
2023-03-24T09:51:18.135Z,2.00
2023-03-24T09:54:22.608Z,1.77
2023-03-24T09:57:45.096Z,1.97
2023-03-24T10:00:46.847Z,1.80
2023-03-24T10:03:48.462Z,1.90
2023-03-24T10:07:00.876Z,2.00
2023-03-24T10:10:03.444Z,2.37
2023-03-24T10:13:41.186Z,2.27
2023-03-24T10:17:20.387Z,2.77
2023-03-24T10:20:37.552Z,2.80
2023-03-24T10:24:14.370Z,2.63
2023-03-24T10:27:32.489Z,2.93
2023-03-24T10:30:39.232Z,2.60
2023-03-24T10:33:43.998Z,2.90
2023-03-24T10:36:46.433Z,3.00
2023-03-24T10:39:48.601Z,2.90
2023-03-24T10:43:07.143Z,3.10
2023-03-24T10:46:16.078Z,3.27
2023-03-24T10:49:20.519Z,2.70
2023-03-24T10:52:24.374Z,2.80
2023-03-24T10:55:38.948Z,2.90
2023-03-24T10:58:43.150Z,3.00
2023-03-24T11:01:45.354Z,3.23
2023-03-24T11:05:05.443Z,2.60
2023-03-24T11:08:28.409Z,2.60
2023-03-24T11:11:31.142Z,2.60
2023-03-24T11:14:32.741Z,2.47
2023-03-24T11:17:34.165Z,2.70
2023-03-24T11:20:38.336Z,2.70
2023-03-24T11:23:44.520Z,3.07
2023-03-24T11:27:00.305Z,3.10
2023-03-24T11:30:01.846Z,2.50
2023-03-24T11:33:04.719Z,2.70
2023-03-24T11:36:28.110Z,2.63
2023-03-24T11:39:32.784Z,1.83
2023-03-24T11:42:34.197Z,1.40
2023-03-24T11:45:40.676Z,1.30
2023-03-24T11:48:50.833Z,1.10
2023-03-24T11:51:55.295Z,1.00
2023-03-24T11:54:56.724Z,1.10
2023-03-24T11:58:29.999Z,1.30
2023-03-24T12:01:37.578Z,1.30
2023-03-24T12:05:04.815Z,1.30
2023-03-24T12:08:41.621Z,1.03
2023-03-24T12:12:08.134Z,1.20
2023-03-24T12:15:26.621Z,1.00
2023-03-24T12:18:48.062Z,1.23
2023-03-24T12:21:58.402Z,0.83
2023-03-24T12:25:10.865Z,0.97
2023-03-24T12:28:12.651Z,1.10
2023-03-24T12:31:42.835Z,1.00
2023-03-24T12:35:03.894Z,1.20
2023-03-24T12:38:17.323Z,1.30
2023-03-24T12:42:10.737Z,1.37
2023-03-24T12:45:22.659Z,1.27
2023-03-24T12:48:32.884Z,1.63
2023-03-24T12:51:42.635Z,1.70
2023-03-24T12:55:04.816Z,1.30
2023-03-24T12:58:20.663Z,1.30
2023-03-24T13:01:46.693Z,1.17
2023-03-24T13:04:51.412Z,1.23
2023-03-24T13:07:58.336Z,1.20
2023-03-24T13:11:06.176Z,1.50
2023-03-24T13:14:14.053Z,1.37
2023-03-24T13:17:22.078Z,1.30
2023-03-24T13:20:32.969Z,1.30
2023-03-24T13:23:47.253Z,1.47
2023-03-24T13:27:16.513Z,1.30
2023-03-24T13:30:32.239Z,1.30
2023-03-24T13:33:36.435Z,1.20
2023-03-24T13:36:46.795Z,1.20
2023-03-24T13:39:51.396Z,1.50
2023-03-24T13:42:56.361Z,1.23
2023-03-24T13:46:11.588Z,1.30
2023-03-24T13:49:15.338Z,1.77
2023-03-24T13:52:44.720Z,1.40
2023-03-24T13:55:52.293Z,1.30
2023-03-24T13:59:06.514Z,1.50
2023-03-24T14:02:18.170Z,1.20
2023-03-24T14:05:22.791Z,1.20
2023-03-24T14:08:52.318Z,1.30
2023-03-24T14:12:03.390Z,1.40
2023-03-24T14:15:19.418Z,1.27
2023-03-24T14:18:23.781Z,1.30
2023-03-24T14:21:30.214Z,1.40
2023-03-24T14:24:32.955Z,1.20
2023-03-24T14:27:37.508Z,1.40
2023-03-24T14:31:00.179Z,1.30
2023-03-24T14:34:13.916Z,1.33
2023-03-24T14:37:16.383Z,1.10
2023-03-24T14:40:33.491Z,1.17
2023-03-24T14:43:54.255Z,1.20
2023-03-24T14:46:59.106Z,1.50
2023-03-24T14:50:03.928Z,1.40
2023-03-24T14:53:05.942Z,1.13
2023-03-24T14:56:14.547Z,1.33
2023-03-24T14:59:31.143Z,1.30
2023-03-24T15:02:37.605Z,1.40
2023-03-24T15:05:39.182Z,1.47
2023-03-24T15:08:52.051Z,1.57
2023-03-24T15:11:54.404Z,1.50
2023-03-24T15:14:56.192Z,1.67
2023-03-24T15:17:58.024Z,1.20
2023-03-24T15:20:59.559Z,1.30
2023-03-24T15:24:02.678Z,1.30
2023-03-24T15:27:04.008Z,1.23
2023-03-24T15:30:13.651Z,2.00
2023-03-24T15:33:15.136Z,1.40
2023-03-24T15:36:21.507Z,1.70
2023-03-24T15:39:33.972Z,1.47
2023-03-24T15:42:41.121Z,1.80
2023-03-24T15:45:57.939Z,1.30
2023-03-24T15:49:23.843Z,1.60
2023-03-24T15:52:35.503Z,1.97
2023-03-24T15:55:37.151Z,1.50
2023-03-24T15:58:57.378Z,1.67
2023-03-24T16:01:59.474Z,1.53
2023-03-24T16:05:12.299Z,1.60
2023-03-24T16:08:41.027Z,1.53
2023-03-24T16:11:42.559Z,1.77
2023-03-24T16:14:44.018Z,1.27
2023-03-24T16:17:45.675Z,1.17
2023-03-24T16:20:47.729Z,1.20
2023-03-24T16:23:51.817Z,1.60
2023-03-24T16:26:53.308Z,1.53
2023-03-24T16:29:55.692Z,1.30
2023-03-24T16:32:57.130Z,1.30
2023-03-24T16:35:59.629Z,1.13
2023-03-24T16:39:02.693Z,1.23
2023-03-24T16:42:04.305Z,1.10
2023-03-24T16:45:06.241Z,1.27
2023-03-24T16:48:10.594Z,1.20
2023-03-24T16:51:16.626Z,1.40
2023-03-24T16:54:18.329Z,1.30
2023-03-24T16:57:19.750Z,1.13
2023-03-24T17:00:22.507Z,1.40
2023-03-24T17:03:25.137Z,1.50
2023-03-24T17:06:28.950Z,1.40
2023-03-24T17:09:32.125Z,1.23
2023-03-24T17:12:33.519Z,1.50
2023-03-24T17:15:35.339Z,1.40
2023-03-24T17:18:39.511Z,1.30
2023-03-24T17:21:58.169Z,1.50
2023-03-24T17:24:59.839Z,1.30
2023-03-24T17:28:02.180Z,1.00
2023-03-24T17:31:03.701Z,1.30
2023-03-24T17:34:15.175Z,1.20
2023-03-24T17:37:23.566Z,1.00
2023-03-24T17:40:25.613Z,1.10
2023-03-24T17:43:27.396Z,1.20
2023-03-24T17:46:28.835Z,1.30
2023-03-24T17:49:30.275Z,1.10
2023-03-24T17:52:31.821Z,1.00
2023-03-24T17:55:33.283Z,1.10
2023-03-24T17:58:35.662Z,1.10
2023-03-24T18:01:39.183Z,1.00
2023-03-24T18:04:40.904Z,1.43
2023-03-24T18:07:42.314Z,1.37
2023-03-24T18:10:43.810Z,1.30
2023-03-24T18:13:45.294Z,1.10
2023-03-24T18:16:46.747Z,1.10
2023-03-24T18:19:48.384Z,1.40
2023-03-24T18:22:49.973Z,1.30
2023-03-24T18:26:04.292Z,1.40
2023-03-24T18:29:05.854Z,1.27
2023-03-24T18:32:07.328Z,1.30
2023-03-24T18:35:11.742Z,1.30
2023-03-24T18:38:15.050Z,1.37
2023-03-24T18:41:19.369Z,1.27
2023-03-24T18:44:21.591Z,1.30
2023-03-24T18:47:24.527Z,1.40
2023-03-24T18:50:26.323Z,1.40
2023-03-24T18:53:27.696Z,1.30
2023-03-24T18:56:29.272Z,1.40
2023-03-24T18:59:31.404Z,1.10
2023-03-24T19:02:32.964Z,1.50
2023-03-24T19:05:34.575Z,1.10
2023-03-24T19:08:38.164Z,1.30
2023-03-24T19:11:41.124Z,1.40
2023-03-24T19:14:44.697Z,1.80
2023-03-24T19:17:46.101Z,1.50
2023-03-24T19:20:47.743Z,2.27
2023-03-24T19:23:51.966Z,1.40
2023-03-24T19:26:54.389Z,1.60
2023-03-24T19:29:56.835Z,1.60
2023-03-24T19:32:58.294Z,1.63
2023-03-24T19:35:59.792Z,1.40
2023-03-24T19:39:01.935Z,1.60
2023-03-24T19:42:07.527Z,1.50
2023-03-24T19:45:14.294Z,1.70
2023-03-24T19:48:16.013Z,2.43
2023-03-24T19:51:18.380Z,1.33
2023-03-24T19:54:19.849Z,1.50
2023-03-24T19:57:21.803Z,1.40
2023-03-24T20:00:23.280Z,1.80
2023-03-24T20:03:24.824Z,1.50
2023-03-24T20:06:26.321Z,1.40
2023-03-24T20:09:27.707Z,1.60
2023-03-24T20:12:29.624Z,1.40
2023-03-24T20:15:31.148Z,1.50
2023-03-24T20:18:34.139Z,1.37
2023-03-24T20:21:35.515Z,1.50
2023-03-24T20:24:38.601Z,1.80
2023-03-24T20:27:40.146Z,1.77
2023-03-24T20:30:44.878Z,2.10
2023-03-24T20:33:46.354Z,1.90
2023-03-24T20:36:47.837Z,2.37
2023-03-24T20:39:49.250Z,2.17
2023-03-24T20:42:50.794Z,2.60
2023-03-24T20:45:56.403Z,1.90
2023-03-24T20:48:57.908Z,1.57
2023-03-24T20:51:59.375Z,1.50
2023-03-24T20:55:01.472Z,1.37
2023-03-24T20:58:03.579Z,1.03
2023-03-24T21:01:08.010Z,1.10
2023-03-24T21:04:10.322Z,0.93
2023-03-24T21:07:11.727Z,0.80
2023-03-24T21:10:13.965Z,0.80
2023-03-24T21:13:16.950Z,0.80
2023-03-24T21:16:19.794Z,0.93
2023-03-24T21:19:22.728Z,1.00
2023-03-24T21:22:24.903Z,1.00
2023-03-24T21:25:28.360Z,1.07
2023-03-24T21:28:30.859Z,0.80
2023-03-24T21:31:32.327Z,1.27
2023-03-24T21:34:33.717Z,0.90
2023-03-24T21:37:35.109Z,1.17
2023-03-24T21:40:37.118Z,1.03
2023-03-24T21:43:40.258Z,1.30
2023-03-24T21:46:42.921Z,1.30
2023-03-24T21:49:48.762Z,1.67
2023-03-24T21:52:51.188Z,1.40
2023-03-24T21:55:55.434Z,1.40
2023-03-24T21:58:57.195Z,1.47
2023-03-24T22:01:58.574Z,1.30
2023-03-24T22:05:01.697Z,1.33
2023-03-24T22:08:06.339Z,1.73
2023-03-24T22:11:07.721Z,4.07
2023-03-24T22:14:09.259Z,5.43
2023-03-24T22:17:10.687Z,4.03
2023-03-24T22:20:13.408Z,3.40
2023-03-24T22:23:14.791Z,3.40
2023-03-24T22:26:16.947Z,2.90
2023-03-24T22:29:18.383Z,2.37
2023-03-24T22:32:19.861Z,2.20
2023-03-24T22:35:23.246Z,2.20
2023-03-24T22:38:25.895Z,3.23
2023-03-24T22:41:27.291Z,3.30
2023-03-24T22:44:31.326Z,2.67
2023-03-24T22:47:32.762Z,2.50
2023-03-24T22:50:34.173Z,1.80
2023-03-24T22:53:35.987Z,1.30
2023-03-24T22:56:37.616Z,1.70
2023-03-24T22:59:39.063Z,1.30
2023-03-24T23:02:40.819Z,1.20
2023-03-24T23:05:46.387Z,1.17
2023-03-24T23:08:49.376Z,1.40
2023-03-24T23:11:50.796Z,1.27
2023-03-24T23:14:54.323Z,2.03
2023-03-24T23:17:57.151Z,1.40
2023-03-24T23:21:07.251Z,1.50
2023-03-24T23:24:08.706Z,1.40
2023-03-24T23:27:10.159Z,1.47
2023-03-24T23:30:14.392Z,1.50
2023-03-24T23:33:15.829Z,1.30
2023-03-24T23:36:19.126Z,1.13
2023-03-24T23:39:20.828Z,1.20
2023-03-24T23:42:22.202Z,1.00
2023-03-24T23:45:23.699Z,1.00
2023-03-24T23:48:25.396Z,1.10
2023-03-24T23:51:26.916Z,1.30
2023-03-24T23:54:29.195Z,0.97
2023-03-24T23:57:30.852Z,1.10
